createdAt,value
2023-03-01T02:09:17.361Z,49.47
2023-03-01T02:10:17.395Z,50.60
2023-03-01T02:11:17.362Z,48.34
2023-03-01T02:12:17.380Z,52.05
2023-03-01T02:13:17.343Z,49.47
2023-03-01T02:14:17.398Z,48.98
2023-03-01T02:15:17.323Z,48.82
2023-03-01T02:16:17.499Z,48.50
2023-03-01T02:17:17.303Z,48.82
2023-03-01T02:18:18.492Z,49.31
2023-03-01T02:19:18.442Z,52.69
2023-03-01T02:20:18.420Z,48.02
2023-03-01T02:21:18.448Z,48.98
2023-03-01T02:22:19.254Z,47.70
2023-03-01T02:23:18.404Z,47.37
2023-03-01T02:24:20.226Z,48.18
2023-03-01T02:25:19.414Z,50.27
2023-03-01T02:26:18.386Z,49.79
2023-03-01T02:27:18.372Z,50.27
2023-03-01T02:28:18.420Z,48.34
2023-03-01T02:29:18.436Z,48.66
2023-03-01T02:30:18.385Z,48.50
2023-03-01T02:31:18.384Z,48.50
2023-03-01T02:32:18.390Z,49.15
2023-03-01T02:33:18.346Z,49.79
2023-03-01T02:34:18.349Z,48.50
2023-03-01T02:35:18.383Z,48.82
2023-03-01T02:36:18.330Z,52.05
2023-03-01T02:37:18.350Z,53.01
2023-03-01T02:38:18.391Z,49.15
2023-03-01T02:39:18.328Z,47.05
2023-03-01T02:40:18.421Z,48.50
2023-03-01T02:41:18.291Z,49.79
2023-03-01T02:42:18.294Z,48.66
2023-03-01T02:43:18.302Z,50.27
2023-03-01T02:44:18.337Z,49.79
2023-03-01T02:45:18.297Z,50.76
2023-03-01T02:46:18.384Z,49.95
2023-03-01T02:47:18.261Z,48.82
2023-03-01T02:48:18.264Z,49.31
2023-03-01T02:49:18.241Z,48.50
2023-03-01T02:50:18.282Z,48.98
2023-03-01T02:51:18.283Z,48.34
2023-03-01T02:52:18.226Z,49.31
2023-03-01T02:53:18.234Z,51.88
2023-03-01T02:54:18.194Z,48.50
2023-03-01T02:55:18.246Z,48.18
2023-03-01T02:56:18.218Z,49.31
2023-03-01T02:57:18.207Z,50.76
2023-03-01T02:58:18.207Z,51.72
2023-03-01T02:59:18.185Z,49.95
2023-03-01T03:00:18.183Z,47.21
2023-03-01T03:01:18.251Z,49.47
2023-03-01T03:02:18.186Z,48.98
2023-03-01T03:03:18.154Z,49.79
2023-03-01T03:04:18.172Z,49.31
2023-03-01T03:05:18.194Z,48.98
2023-03-01T03:06:18.120Z,49.95
2023-03-01T03:07:18.135Z,49.79
2023-03-01T03:08:18.153Z,49.63
2023-03-01T03:09:18.097Z,49.79
2023-03-01T03:10:18.138Z,47.05
2023-03-01T03:11:18.107Z,47.53
2023-03-01T03:12:18.120Z,47.05
2023-03-01T03:13:18.075Z,48.02
2023-03-01T03:14:18.102Z,48.02
2023-03-01T03:15:18.070Z,49.15
2023-03-01T03:16:18.162Z,49.95
2023-03-01T03:17:18.041Z,50.27
2023-03-01T03:18:18.051Z,47.53
2023-03-01T03:19:18.071Z,50.43
2023-03-01T03:20:18.078Z,49.15
2023-03-01T03:21:18.038Z,47.70
2023-03-01T03:22:18.068Z,47.37
2023-03-01T03:23:18.047Z,48.18
2023-03-01T03:24:18.012Z,51.56
2023-03-01T03:25:18.030Z,53.17
2023-03-01T03:26:18.073Z,51.40
2023-03-01T03:27:18.014Z,48.50
2023-03-01T03:28:18.000Z,48.50
2023-03-01T03:29:17.977Z,50.11
2023-03-01T03:30:17.995Z,50.27
2023-03-01T03:31:17.981Z,51.24
2023-03-01T03:32:17.975Z,49.79
2023-03-01T03:33:17.951Z,50.43
2023-03-01T03:34:17.975Z,49.15
2023-03-01T03:35:17.961Z,59.94
2023-03-01T03:36:17.967Z,57.04
2023-03-01T03:37:17.929Z,52.37
2023-03-01T03:38:17.983Z,48.18
2023-03-01T03:39:20.578Z,50.76
2023-03-01T03:40:17.917Z,54.95
2023-03-01T03:41:17.918Z,49.47
2023-03-01T03:42:17.903Z,49.95
2023-03-01T03:43:17.918Z,53.66
2023-03-01T03:44:17.886Z,52.53
2023-03-01T03:45:17.885Z,53.66
2023-03-01T03:46:17.871Z,52.53
2023-03-01T03:47:18.068Z,50.76
2023-03-01T03:48:17.848Z,52.05
2023-03-01T03:49:17.851Z,52.21
2023-03-01T03:50:17.861Z,52.69
2023-03-01T03:51:17.836Z,55.11
2023-03-01T03:52:17.824Z,51.24
2023-03-01T03:53:17.853Z,52.53
2023-03-01T03:54:17.818Z,48.50
2023-03-01T03:55:17.842Z,50.92
2023-03-01T03:56:17.820Z,48.82
2023-03-01T03:57:17.967Z,50.43
2023-03-01T03:58:17.813Z,49.79
2023-03-01T03:59:17.767Z,51.08
2023-03-01T04:00:17.827Z,48.66
2023-03-01T04:01:17.810Z,48.66
2023-03-01T04:02:17.786Z,49.31
2023-03-01T04:03:17.761Z,49.31
2023-03-01T04:04:17.740Z,50.27
2023-03-01T04:05:17.748Z,52.53
2023-03-01T04:06:17.768Z,51.72
2023-03-01T04:07:17.749Z,50.43
2023-03-01T04:08:17.715Z,51.72
2023-03-01T04:09:17.704Z,50.27
2023-03-01T04:10:18.247Z,52.53
2023-03-01T04:11:17.707Z,53.01
2023-03-01T04:12:17.688Z,52.69
2023-03-01T04:13:17.717Z,56.56
2023-03-01T04:14:17.666Z,48.98
2023-03-01T04:15:17.699Z,47.53
2023-03-01T04:16:17.734Z,56.07
2023-03-01T04:17:17.689Z,51.40
2023-03-01T04:18:17.638Z,50.11
2023-03-01T04:19:17.641Z,50.43
2023-03-01T04:20:17.679Z,51.08
2023-03-01T04:21:17.641Z,52.05
2023-03-01T04:22:17.631Z,51.72
2023-03-01T04:23:18.611Z,52.05
2023-03-01T04:24:17.601Z,49.95
2023-03-01T04:25:17.630Z,51.24
2023-03-01T04:26:17.606Z,51.72
2023-03-01T04:27:17.625Z,52.05
2023-03-01T04:28:17.620Z,54.79
2023-03-01T04:29:17.581Z,51.24
2023-03-01T04:30:17.602Z,57.85
2023-03-01T04:31:17.707Z,51.40
2023-03-01T04:32:17.738Z,51.56
2023-03-01T04:33:17.565Z,51.56
2023-03-01T04:34:17.538Z,51.24
2023-03-01T04:35:17.562Z,49.95
2023-03-01T04:36:17.672Z,50.76
2023-03-01T04:37:17.529Z,52.05
2023-03-01T04:38:17.528Z,53.17
2023-03-01T04:39:17.502Z,51.56
2023-03-01T04:40:17.533Z,52.37
2023-03-01T04:41:17.498Z,52.69
2023-03-01T04:42:17.503Z,53.50
2023-03-01T04:43:17.653Z,53.82
2023-03-01T04:44:17.564Z,50.76
2023-03-01T04:45:17.637Z,52.53
2023-03-01T04:46:17.540Z,51.56
2023-03-01T04:47:17.478Z,50.76
2023-03-01T04:48:17.459Z,51.08
2023-03-01T04:49:17.459Z,51.72
2023-03-01T04:50:17.452Z,52.21
2023-03-01T04:51:17.460Z,50.92
2023-03-01T04:52:17.444Z,52.37
2023-03-01T04:53:17.644Z,56.40
2023-03-01T04:54:17.431Z,51.72
2023-03-01T04:55:17.433Z,49.79
2023-03-01T04:56:17.419Z,56.07
2023-03-01T04:57:17.415Z,53.17
2023-03-01T04:58:18.216Z,50.60
2023-03-01T04:59:17.377Z,52.21
2023-03-01T05:00:17.427Z,51.56
2023-03-01T05:01:18.100Z,51.40
2023-03-01T05:02:17.386Z,50.76
2023-03-01T05:03:17.371Z,56.88
2023-03-01T05:04:17.410Z,50.43
2023-03-01T05:05:17.372Z,53.66
2023-03-01T05:06:17.366Z,51.24
2023-03-01T05:07:17.344Z,50.92
2023-03-01T05:08:17.329Z,52.37
2023-03-01T05:09:17.320Z,56.07
2023-03-01T05:10:17.295Z,54.14
2023-03-01T05:11:17.318Z,51.08
2023-03-01T05:12:17.319Z,50.92
2023-03-01T05:13:17.285Z,52.85
2023-03-01T05:14:17.289Z,50.76
2023-03-01T05:15:17.306Z,52.85
2023-03-01T05:16:17.350Z,56.56
2023-03-01T05:17:17.257Z,50.43
2023-03-01T05:18:17.283Z,52.21
2023-03-01T05:19:17.262Z,53.01
2023-03-01T05:20:17.249Z,50.92
2023-03-01T05:21:17.538Z,52.05
2023-03-01T05:22:17.235Z,52.21
2023-03-01T05:23:17.253Z,51.40
2023-03-01T05:24:17.254Z,52.69
2023-03-01T05:25:17.245Z,52.21
2023-03-01T05:26:27.887Z,51.08
2023-03-01T05:27:19.277Z,53.50
2023-03-01T05:28:17.305Z,53.50
2023-03-01T05:29:17.234Z,62.04
2023-03-01T05:30:17.211Z,51.56
2023-03-01T05:31:17.268Z,58.17
2023-03-01T05:32:17.315Z,54.46
2023-03-01T05:33:17.196Z,53.33
2023-03-01T05:34:17.169Z,53.66
2023-03-01T05:35:17.211Z,53.17
2023-03-01T05:36:17.181Z,62.68
2023-03-01T05:37:17.188Z,53.33
2023-03-01T05:38:17.230Z,53.98
2023-03-01T05:39:17.168Z,52.69
2023-03-01T05:40:17.172Z,53.82
2023-03-01T05:41:17.187Z,56.56
2023-03-01T05:42:17.189Z,55.11
2023-03-01T05:43:17.145Z,56.56
2023-03-01T05:44:17.120Z,55.27
2023-03-01T05:45:17.141Z,55.43
2023-03-01T05:46:17.197Z,55.43
2023-03-01T05:47:17.125Z,55.27
2023-03-01T05:48:17.120Z,56.56
2023-03-01T05:49:17.060Z,53.17
2023-03-01T05:50:18.089Z,54.14
2023-03-01T05:51:17.097Z,53.50
2023-03-01T05:52:17.078Z,58.81
2023-03-01T05:53:17.069Z,53.50
2023-03-01T05:54:17.100Z,53.01
2023-03-01T05:55:17.086Z,53.33
2023-03-01T05:56:17.080Z,53.82
2023-03-01T05:57:17.076Z,53.98
2023-03-01T05:58:17.061Z,55.11
2023-03-01T05:59:17.030Z,55.43
2023-03-01T06:00:17.051Z,56.07
2023-03-01T06:01:17.036Z,55.11
2023-03-01T06:02:17.028Z,56.07
2023-03-01T06:03:16.999Z,55.11
2023-03-01T06:04:17.011Z,54.95
2023-03-01T06:05:17.050Z,55.59
2023-03-01T06:06:17.048Z,54.30
2023-03-01T06:07:17.056Z,56.72
2023-03-01T06:08:16.976Z,57.85
2023-03-01T06:09:16.979Z,56.56
2023-03-01T06:10:16.959Z,62.20
2023-03-01T06:11:17.013Z,59.62
2023-03-01T06:12:16.979Z,57.69
2023-03-01T06:13:16.956Z,56.40
2023-03-01T06:14:16.914Z,54.79
2023-03-01T06:15:19.226Z,59.30
2023-03-01T06:16:17.015Z,51.88
2023-03-01T06:17:16.923Z,55.43
2023-03-01T06:18:16.941Z,57.36
2023-03-01T06:19:16.915Z,61.07
2023-03-01T06:20:17.785Z,62.04
2023-03-01T06:21:16.919Z,59.94
2023-03-01T06:22:16.905Z,59.30
2023-03-01T06:23:16.910Z,56.88
2023-03-01T06:24:17.043Z,58.33
2023-03-01T06:25:16.904Z,54.79
2023-03-01T06:26:16.878Z,54.14
2023-03-01T06:27:16.856Z,53.01
2023-03-01T06:28:16.845Z,55.75
2023-03-01T06:29:16.846Z,58.49
2023-03-01T06:30:16.862Z,59.30
2023-03-01T06:31:16.905Z,54.95
2023-03-01T06:32:16.918Z,56.40
2023-03-01T06:33:16.842Z,57.69
2023-03-01T06:34:16.885Z,71.06
2023-03-01T06:35:16.812Z,56.40
2023-03-01T06:36:16.823Z,57.52
2023-03-01T06:37:16.775Z,66.39
2023-03-01T06:38:16.898Z,66.87
2023-03-01T06:39:16.777Z,55.59
2023-03-01T06:40:17.082Z,57.20
2023-03-01T06:41:16.781Z,54.79
2023-03-01T06:42:16.756Z,55.43
2023-03-01T06:43:17.736Z,58.33
2023-03-01T06:44:16.775Z,62.36
2023-03-01T06:45:16.745Z,58.81
2023-03-01T06:46:16.845Z,58.49
2023-03-01T06:47:16.754Z,58.49
2023-03-01T06:48:16.769Z,57.36
2023-03-01T06:49:16.713Z,60.91
2023-03-01T06:50:16.767Z,59.78
2023-03-01T06:51:16.713Z,59.62
2023-03-01T06:52:17.714Z,61.07
2023-03-01T06:53:16.703Z,61.55
2023-03-01T06:54:16.704Z,59.94
2023-03-01T06:55:16.676Z,58.65
2023-03-01T06:56:17.718Z,57.52
2023-03-01T06:57:16.743Z,58.01
2023-03-01T06:58:16.643Z,53.33
2023-03-01T06:59:16.663Z,56.07
2023-03-01T07:00:16.637Z,64.45
2023-03-01T07:01:16.762Z,63.16
2023-03-01T07:02:16.623Z,62.20
2023-03-01T07:03:16.657Z,60.10
2023-03-01T07:04:16.607Z,63.49
2023-03-01T07:05:16.692Z,59.62
2023-03-01T07:06:16.616Z,53.82
2023-03-01T07:07:16.604Z,61.39
2023-03-01T07:08:16.600Z,59.30
2023-03-01T07:09:16.626Z,57.04
2023-03-01T07:10:16.614Z,61.07
2023-03-01T07:11:16.586Z,57.20
2023-03-01T07:12:16.572Z,81.05
2023-03-01T07:13:16.533Z,60.42
2023-03-01T07:14:16.538Z,53.98
2023-03-01T07:15:16.548Z,56.07
2023-03-01T07:16:16.581Z,58.65
2023-03-01T07:17:16.544Z,51.88
2023-03-01T07:18:16.502Z,61.39
2023-03-01T07:19:16.505Z,58.01
2023-03-01T07:20:16.505Z,53.82
2023-03-01T07:21:16.502Z,52.53
2023-03-01T07:22:16.529Z,52.69
2023-03-01T07:23:16.492Z,54.62
2023-03-01T07:24:16.495Z,61.55
2023-03-01T07:25:16.554Z,52.69
2023-03-01T07:26:16.476Z,53.98
2023-03-01T07:27:16.459Z,51.56
2023-03-01T07:28:21.488Z,52.37
2023-03-01T07:29:16.457Z,51.72
2023-03-01T07:30:16.465Z,53.33
2023-03-01T07:31:16.454Z,53.50
2023-03-01T07:32:16.499Z,53.33
2023-03-01T07:33:16.514Z,53.33
2023-03-01T07:34:16.416Z,53.82
2023-03-01T07:35:16.409Z,51.88
2023-03-01T07:36:16.414Z,56.56
2023-03-01T07:37:16.378Z,53.50
2023-03-01T07:38:16.413Z,52.53
2023-03-01T07:39:18.058Z,52.69
2023-03-01T07:40:16.373Z,52.21
2023-03-01T07:41:16.361Z,52.05
2023-03-01T07:42:16.361Z,53.82
2023-03-01T07:43:16.356Z,53.01
2023-03-01T07:44:16.376Z,51.08
2023-03-01T07:45:16.349Z,53.66
2023-03-01T07:46:16.375Z,51.72
2023-03-01T07:47:16.322Z,52.21
2023-03-01T07:48:16.309Z,53.98
2023-03-01T07:49:16.333Z,55.43
2023-03-01T07:50:17.161Z,56.72
2023-03-01T07:51:16.297Z,52.69
2023-03-01T07:52:16.272Z,52.05
2023-03-01T07:53:16.282Z,51.40
2023-03-01T07:54:17.284Z,54.46
2023-03-01T07:55:16.276Z,54.79
2023-03-01T07:56:16.292Z,54.14
2023-03-01T07:57:16.277Z,52.53
2023-03-01T07:58:16.326Z,53.66
2023-03-01T07:59:16.249Z,54.14
2023-03-01T08:00:16.239Z,63.00
2023-03-01T08:01:16.290Z,69.29
2023-03-01T08:02:16.229Z,68.32
2023-03-01T08:03:17.081Z,64.78
2023-03-01T08:04:16.198Z,64.29
2023-03-01T08:05:16.220Z,61.07
2023-03-01T08:06:16.216Z,59.94
2023-03-01T08:07:16.199Z,56.72
2023-03-01T08:08:17.492Z,53.17
2023-03-01T08:09:16.188Z,53.66
